sensor_id;sensor_type;location;lat;lon;timestamp;pressure;altitude;pressure_sealevel;temperature;humidity
3178;BME280;38141;42.666;23.344;2023-07-13T00:02:21;94929.19;;;22.24;100.00
3178;BME280;38141;42.666;23.344;2023-07-13T00:04:48;94941.81;;;22.12;100.00
3178;BME280;38141;42.666;23.344;2023-07-13T00:07:17;94941.88;;;22.22;100.00
3178;BME280;38141;42.666;23.344;2023-07-13T00:09:45;94934.38;;;22.22;100.00
3178;BME280;38141;42.666;23.344;2023-07-13T00:12:24;94914.59;;;22.14;100.00
3178;BME280;38141;42.666;23.344;2023-07-13T00:14:51;94940.47;;;22.48;100.00
3178;BME280;38141;42.666;23.344;2023-07-13T00:17:17;94933.03;;;22.57;100.00
3178;BME280;38141;42.666;23.344;2023-07-13T00:19:44;94931.91;;;22.55;100.00
3178;BME280;38141;42.666;23.344;2023-07-13T00:22:11;94933.06;;;22.05;100.00
3178;BME280;38141;42.666;23.344;2023-07-13T00:24:39;94934.91;;;22.08;100.00
3178;BME280;38141;42.666;23.344;2023-07-13T00:27:07;94929.84;;;22.06;100.00
3178;BME280;38141;42.666;23.344;2023-07-13T00:29:35;94923.28;;;22.13;100.00
3178;BME280;38141;42.666;23.344;2023-07-13T00:32:02;94921.00;;;22.11;100.00
3178;BME280;38141;42.666;23.344;2023-07-13T00:34:30;94914.94;;;21.95;100.00
3178;BME280;38141;42.666;23.344;2023-07-13T00:36:57;94920.44;;;21.95;100.00
3178;BME280;38141;42.666;23.344;2023-07-13T00:39:24;94918.22;;;22.02;100.00
3178;BME280;38141;42.666;23.344;2023-07-13T00:41:52;94922.63;;;22.00;100.00
3178;BME280;38141;42.666;23.344;2023-07-13T00:44:19;94927.84;;;21.85;100.00
3178;BME280;38141;42.666;23.344;2023-07-13T00:46:48;94927.09;;;21.85;100.00
3178;BME280;38141;42.666;23.344;2023-07-13T00:49:19;94930.44;;;21.80;100.00
3178;BME280;38141;42.666;23.344;2023-07-13T00:51:49;94935.22;;;21.88;100.00
3178;BME280;38141;42.666;23.344;2023-07-13T00:54:20;94932.06;;;21.77;100.00
3178;BME280;38141;42.666;23.344;2023-07-13T00:56:50;94924.97;;;21.89;100.00
3178;BME280;38141;42.666;23.344;2023-07-13T00:59:20;94919.47;;;21.89;100.00
3178;BME280;38141;42.666;23.344;2023-07-13T01:01:48;94914.69;;;22.02;100.00
3178;BME280;38141;42.666;23.344;2023-07-13T01:04:15;94923.25;;;22.04;100.00
3178;BME280;38141;42.666;23.344;2023-07-13T01:06:43;94914.47;;;21.74;100.00
3178;BME280;38141;42.666;23.344;2023-07-13T01:09:11;94910.56;;;21.85;100.00
3178;BME280;38141;42.666;23.344;2023-07-13T01:11:38;94887.81;;;21.71;100.00
3178;BME280;38141;42.666;23.344;2023-07-13T01:14:06;94913.75;;;21.83;100.00
3178;BME280;38141;42.666;23.344;2023-07-13T01:16:36;94906.28;;;21.62;100.00
3178;BME280;38141;42.666;23.344;2023-07-13T01:19:09;94910.19;;;21.73;100.00
3178;BME280;38141;42.666;23.344;2023-07-13T01:21:40;94911.44;;;21.38;100.00
3178;BME280;38141;42.666;23.344;2023-07-13T01:24:08;94899.16;;;21.52;100.00
3178;BME280;38141;42.666;23.344;2023-07-13T01:26:35;94906.09;;;21.56;100.00
3178;BME280;38141;42.666;23.344;2023-07-13T01:29:02;94906.72;;;21.39;100.00
3178;BME280;38141;42.666;23.344;2023-07-13T01:31:29;94918.94;;;21.38;100.00
3178;BME280;38141;42.666;23.344;2023-07-13T01:33:56;94914.28;;;21.47;100.00
3178;BME280;38141;42.666;23.344;2023-07-13T01:36:23;94915.50;;;21.46;100.00
3178;BME280;38141;42.666;23.344;2023-07-13T01:38:51;94913.16;;;21.45;100.00
3178;BME280;38141;42.666;23.344;2023-07-13T01:41:18;94923.63;;;21.50;100.00
3178;BME280;38141;42.666;23.344;2023-07-13T01:43:45;94914.16;;;21.51;100.00
3178;BME280;38141;42.666;23.344;2023-07-13T01:46:11;94906.72;;;21.39;100.00
3178;BME280;38141;42.666;23.344;2023-07-13T01:48:38;94911.88;;;21.37;100.00
3178;BME280;38141;42.666;23.344;2023-07-13T01:51:05;94910.56;;;21.41;100.00
3178;BME280;38141;42.666;23.344;2023-07-13T01:53:32;94895.25;;;21.40;100.00
3178;BME280;38141;42.666;23.344;2023-07-13T01:56:00;94904.41;;;21.59;100.00
3178;BME280;38141;42.666;23.344;2023-07-13T01:58:27;94898.97;;;21.68;100.00
3178;BME280;38141;42.666;23.344;2023-07-13T02:00:53;94908.97;;;21.74;100.00
3178;BME280;38141;42.666;23.344;2023-07-13T02:03:20;94907.56;;;21.70;100.00
3178;BME280;38141;42.666;23.344;2023-07-13T02:05:47;94908.06;;;21.78;100.00
3178;BME280;38141;42.666;23.344;2023-07-13T02:08:14;94918.50;;;21.83;100.00
3178;BME280;38141;42.666;23.344;2023-07-13T02:10:40;94913.84;;;21.70;100.00
3178;BME280;38141;42.666;23.344;2023-07-13T02:13:09;94922.75;;;21.53;100.00
3178;BME280;38141;42.666;23.344;2023-07-13T02:15:38;94922.06;;;21.27;100.00
3178;BME280;38141;42.666;23.344;2023-07-13T02:18:05;94914.63;;;21.15;100.00
3178;BME280;38141;42.666;23.344;2023-07-13T02:20:32;94908.56;;;21.20;100.00
3178;BME280;38141;42.666;23.344;2023-07-13T02:22:59;94921.31;;;21.14;100.00
3178;BME280;38141;42.666;23.344;2023-07-13T02:25:25;94912.72;;;21.12;100.00
3178;BME280;38141;42.666;23.344;2023-07-13T02:27:52;94926.69;;;21.17;100.00
3178;BME280;38141;42.666;23.344;2023-07-13T02:30:21;94925.06;;;21.20;100.00
3178;BME280;38141;42.666;23.344;2023-07-13T02:32:50;94927.72;;;20.98;100.00
3178;BME280;38141;42.666;23.344;2023-07-13T02:35:16;94925.19;;;21.16;100.00
3178;BME280;38141;42.666;23.344;2023-07-13T02:37:43;94927.28;;;21.00;100.00
3178;BME280;38141;42.666;23.344;2023-07-13T02:40:10;94927.16;;;21.16;100.00
3178;BME280;38141;42.666;23.344;2023-07-13T02:42:37;94911.09;;;21.02;100.00
3178;BME280;38141;42.666;23.344;2023-07-13T02:45:05;94930.78;;;21.13;100.00
3178;BME280;38141;42.666;23.344;2023-07-13T02:47:33;94913.28;;;21.07;100.00
3178;BME280;38141;42.666;23.344;2023-07-13T02:50:00;94923.63;;;21.15;100.00
3178;BME280;38141;42.666;23.344;2023-07-13T02:52:27;94925.50;;;21.06;100.00
3178;BME280;38141;42.666;23.344;2023-07-13T02:54:53;94909.59;;;20.88;100.00
3178;BME280;38141;42.666;23.344;2023-07-13T02:57:20;94928.25;;;21.06;100.00
3178;BME280;38141;42.666;23.344;2023-07-13T02:59:47;94927.94;;;21.16;100.00
3178;BME280;38141;42.666;23.344;2023-07-13T03:02:14;94926.06;;;21.01;100.00
3178;BME280;38141;42.666;23.344;2023-07-13T03:04:42;94936.09;;;20.95;100.00
3178;BME280;38141;42.666;23.344;2023-07-13T03:07:08;94933.16;;;20.89;100.00
3178;BME280;38141;42.666;23.344;2023-07-13T03:09:36;94930.38;;;20.76;100.00
3178;BME280;38141;42.666;23.344;2023-07-13T03:12:03;94939.97;;;20.72;100.00
3178;BME280;38141;42.666;23.344;2023-07-13T03:14:30;94942.25;;;20.86;100.00
3178;BME280;38141;42.666;23.344;2023-07-13T03:16:56;94944.81;;;20.68;100.00
3178;BME280;38141;42.666;23.344;2023-07-13T03:19:23;94939.66;;;20.45;100.00
3178;BME280;38141;42.666;23.344;2023-07-13T03:21:51;94941.06;;;20.49;100.00
3178;BME280;38141;42.666;23.344;2023-07-13T03:24:19;94946.47;;;20.65;100.00
3178;BME280;38141;42.666;23.344;2023-07-13T03:26:45;94944.34;;;20.95;100.00
3178;BME280;38141;42.666;23.344;2023-07-13T03:29:12;94941.59;;;20.95;100.00
3178;BME280;38141;42.666;23.344;2023-07-13T03:31:40;94938.31;;;20.74;100.00
3178;BME280;38141;42.666;23.344;2023-07-13T03:34:06;94952.50;;;20.73;100.00
3178;BME280;38141;42.666;23.344;2023-07-13T03:36:33;94949.97;;;20.78;100.00
3178;BME280;38141;42.666;23.344;2023-07-13T03:39:02;94953.25;;;20.86;100.00
3178;BME280;38141;42.666;23.344;2023-07-13T03:41:29;94954.81;;;20.87;100.00
3178;BME280;38141;42.666;23.344;2023-07-13T03:43:57;94952.69;;;21.16;100.00
3178;BME280;38141;42.666;23.344;2023-07-13T03:46:24;94952.25;;;21.05;100.00
3178;BME280;38141;42.666;23.344;2023-07-13T03:48:51;94943.69;;;21.16;100.00
3178;BME280;38141;42.666;23.344;2023-07-13T03:51:18;94946.19;;;21.10;100.00
3178;BME280;38141;42.666;23.344;2023-07-13T03:53:46;94949.91;;;21.29;100.00
3178;BME280;38141;42.666;23.344;2023-07-13T03:56:16;94949.34;;;21.34;100.00
3178;BME280;38141;42.666;23.344;2023-07-13T03:58:44;94948.81;;;21.26;100.00
3178;BME280;38141;42.666;23.344;2023-07-13T04:01:13;94945.56;;;21.41;100.00
3178;BME280;38141;42.666;23.344;2023-07-13T04:03:41;94947.75;;;21.46;100.00
3178;BME280;38141;42.666;23.344;2023-07-13T04:06:14;94955.84;;;21.27;100.00
3178;BME280;38141;42.666;23.344;2023-07-13T04:08:47;94951.41;;;21.43;100.00
3178;BME280;38141;42.666;23.344;2023-07-13T04:11:17;94942.72;;;21.88;100.00
3178;BME280;38141;42.666;23.344;2023-07-13T04:13:44;94945.47;;;21.88;100.00
3178;BME280;38141;42.666;23.344;2023-07-13T04:16:11;94934.19;;;21.73;100.00
3178;BME280;38141;42.666;23.344;2023-07-13T04:18:38;94942.22;;;21.80;100.00
3178;BME280;38141;42.666;23.344;2023-07-13T04:21:07;94948.09;;;22.13;100.00
3178;BME280;38141;42.666;23.344;2023-07-13T04:23:34;94951.81;;;22.19;100.00
3178;BME280;38141;42.666;23.344;2023-07-13T04:26:01;94965.78;;;22.25;100.00
3178;BME280;38141;42.666;23.344;2023-07-13T04:28:30;94951.63;;;22.44;100.00
3178;BME280;38141;42.666;23.344;2023-07-13T04:30:57;94964.28;;;22.63;100.00
3178;BME280;38141;42.666;23.344;2023-07-13T04:33:24;94967.28;;;22.78;100.00
3178;BME280;38141;42.666;23.344;2023-07-13T04:35:52;94952.63;;;22.99;100.00
3178;BME280;38141;42.666;23.344;2023-07-13T04:38:21;94956.94;;;23.10;100.00
3178;BME280;38141;42.666;23.344;2023-07-13T04:40:50;94958.69;;;23.25;100.00
3178;BME280;38141;42.666;23.344;2023-07-13T04:43:17;94963.31;;;23.46;100.00
3178;BME280;38141;42.666;23.344;2023-07-13T04:45:45;94958.75;;;23.71;100.00
3178;BME280;38141;42.666;23.344;2023-07-13T04:48:12;94952.56;;;23.76;100.00
3178;BME280;38141;42.666;23.344;2023-07-13T04:50:39;94959.47;;;23.89;100.00
3178;BME280;38141;42.666;23.344;2023-07-13T04:53:06;94969.75;;;24.25;100.00
3178;BME280;38141;42.666;23.344;2023-07-13T04:55:33;94980.88;;;24.58;100.00
3178;BME280;38141;42.666;23.344;2023-07-13T04:58:00;94973.22;;;24.95;100.00
3178;BME280;38141;42.666;23.344;2023-07-13T05:00:28;94984.22;;;25.37;100.00
3178;BME280;38141;42.666;23.344;2023-07-13T05:02:57;94976.31;;;25.92;100.00
3178;BME280;38141;42.666;23.344;2023-07-13T05:05:25;94984.81;;;26.42;95.90
3178;BME280;38141;42.666;23.344;2023-07-13T05:07:52;94987.97;;;27.28;90.29
3178;BME280;38141;42.666;23.344;2023-07-13T05:10:20;94990.41;;;27.41;84.60
3178;BME280;38141;42.666;23.344;2023-07-13T05:12:47;94983.97;;;28.10;78.61
3178;BME280;38141;42.666;23.344;2023-07-13T05:15:14;94984.59;;;28.46;76.32
3178;BME280;38141;42.666;23.344;2023-07-13T05:17:41;94988.00;;;28.87;72.25
3178;BME280;38141;42.666;23.344;2023-07-13T05:20:09;94996.97;;;30.46;64.12
3178;BME280;38141;42.666;23.344;2023-07-13T05:22:36;94987.59;;;30.60;61.19
3178;BME280;38141;42.666;23.344;2023-07-13T05:25:05;94989.13;;;31.17;56.32
3178;BME280;38141;42.666;23.344;2023-07-13T05:27:32;94987.25;;;31.75;54.15
3178;BME280;38141;42.666;23.344;2023-07-13T05:30:00;94994.72;;;32.25;51.92
3178;BME280;38141;42.666;23.344;2023-07-13T05:32:26;94993.88;;;32.76;49.92
3178;BME280;38141;42.666;23.344;2023-07-13T05:34:53;94999.25;;;33.64;47.42
3178;BME280;38141;42.666;23.344;2023-07-13T05:37:22;94999.53;;;33.84;45.97
3178;BME280;38141;42.666;23.344;2023-07-13T05:39:49;95001.97;;;35.24;43.96
3178;BME280;38141;42.666;23.344;2023-07-13T05:42:16;95004.47;;;34.40;44.44
3178;BME280;38141;42.666;23.344;2023-07-13T05:44:43;95014.44;;;34.60;44.17
3178;BME280;38141;42.666;23.344;2023-07-13T05:47:10;95007.91;;;35.79;41.94
3178;BME280;38141;42.666;23.344;2023-07-13T05:49:37;95009.63;;;36.22;40.94
3178;BME280;38141;42.666;23.344;2023-07-13T05:52:05;95009.69;;;36.55;40.93
3178;BME280;38141;42.666;23.344;2023-07-13T05:54:33;95011.97;;;36.44;41.20
3178;BME280;38141;42.666;23.344;2023-07-13T05:56:59;95004.25;;;38.03;38.68
3178;BME280;38141;42.666;23.344;2023-07-13T05:59:26;94999.84;;;38.22;38.48
3178;BME280;38141;42.666;23.344;2023-07-13T06:01:53;94999.78;;;39.02;37.20
3178;BME280;38141;42.666;23.344;2023-07-13T06:04:20;95001.31;;;39.26;36.47
3178;BME280;38141;42.666;23.344;2023-07-13T06:06:48;94996.59;;;39.28;35.35
3178;BME280;38141;42.666;23.344;2023-07-13T06:09:14;94986.38;;;38.44;36.04
3178;BME280;38141;42.666;23.344;2023-07-13T06:11:42;94983.03;;;39.42;35.11
3178;BME280;38141;42.666;23.344;2023-07-13T06:14:10;94991.13;;;39.68;34.19
3178;BME280;38141;42.666;23.344;2023-07-13T06:16:37;95006.53;;;40.75;32.28
3178;BME280;38141;42.666;23.344;2023-07-13T06:19:04;95002.66;;;40.96;31.99
3178;BME280;38141;42.666;23.344;2023-07-13T06:21:31;95002.84;;;39.80;33.69
3178;BME280;38141;42.666;23.344;2023-07-13T06:23:58;94998.44;;;41.37;32.53
3178;BME280;38141;42.666;23.344;2023-07-13T06:26:24;95009.38;;;41.90;31.66
3178;BME280;38141;42.666;23.344;2023-07-13T06:28:53;94999.25;;;40.97;32.69
3178;BME280;38141;42.666;23.344;2023-07-13T06:31:19;94993.69;;;40.27;32.95
3178;BME280;38141;42.666;23.344;2023-07-13T06:33:46;95010.81;;;42.50;29.60
3178;BME280;38141;42.666;23.344;2023-07-13T06:36:13;95000.94;;;42.51;28.64
3178;BME280;38141;42.666;23.344;2023-07-13T06:38:40;94996.75;;;42.00;28.32
3178;BME280;38141;42.666;23.344;2023-07-13T06:41:07;95004.88;;;43.26;27.29
3178;BME280;38141;42.666;23.344;2023-07-13T06:43:34;95002.66;;;41.53;29.46
3178;BME280;38141;42.666;23.344;2023-07-13T06:46:02;94987.66;;;41.77;29.47
3178;BME280;38141;42.666;23.344;2023-07-13T06:48:29;94998.56;;;44.01;26.54
3178;BME280;38141;42.666;23.344;2023-07-13T06:50:56;94994.97;;;43.54;27.32
3178;BME280;38141;42.666;23.344;2023-07-13T06:53:23;94990.06;;;42.23;27.84
3178;BME280;38141;42.666;23.344;2023-07-13T06:55:50;94996.41;;;42.65;28.83
3178;BME280;38141;42.666;23.344;2023-07-13T06:58:19;94987.63;;;44.36;26.80
3178;BME280;38141;42.666;23.344;2023-07-13T07:00:46;94997.28;;;43.75;27.38
3178;BME280;38141;42.666;23.344;2023-07-13T07:03:14;94990.47;;;41.85;29.04
3178;BME280;38141;42.666;23.344;2023-07-13T07:05:41;94994.94;;;38.66;32.36
3178;BME280;38141;42.666;23.344;2023-07-13T07:08:08;94997.19;;;41.22;30.26
3178;BME280;38141;42.666;23.344;2023-07-13T07:10:35;94990.75;;;42.31;28.65
3178;BME280;38141;42.666;23.344;2023-07-13T07:13:03;94988.81;;;42.68;27.51
3178;BME280;38141;42.666;23.344;2023-07-13T07:15:30;94987.34;;;43.03;27.56
3178;BME280;38141;42.666;23.344;2023-07-13T07:17:56;94997.69;;;43.52;27.91
3178;BME280;38141;42.666;23.344;2023-07-13T07:20:25;94973.09;;;43.76;26.70
3178;BME280;38141;42.666;23.344;2023-07-13T07:22:52;94987.28;;;41.98;28.68
3178;BME280;38141;42.666;23.344;2023-07-13T07:25:19;94990.91;;;40.59;29.66
3178;BME280;38141;42.666;23.344;2023-07-13T07:27:46;94988.81;;;41.32;29.37
3178;BME280;38141;42.666;23.344;2023-07-13T07:30:13;94980.44;;;41.09;29.48
3178;BME280;38141;42.666;23.344;2023-07-13T07:32:40;94988.69;;;41.22;29.60
3178;BME280;38141;42.666;23.344;2023-07-13T07:35:08;94986.75;;;40.53;28.80
3178;BME280;38141;42.666;23.344;2023-07-13T07:37:36;94983.31;;;41.34;28.76
3178;BME280;38141;42.666;23.344;2023-07-13T07:40:03;94975.78;;;40.02;30.53
3178;BME280;38141;42.666;23.344;2023-07-13T07:42:31;94968.69;;;38.43;32.81
3178;BME280;38141;42.666;23.344;2023-07-13T07:44:58;94967.03;;;37.55;34.14
3178;BME280;38141;42.666;23.344;2023-07-13T07:47:26;94969.59;;;37.25;35.23
3178;BME280;38141;42.666;23.344;2023-07-13T07:49:53;94963.16;;;37.66;33.77
3178;BME280;38141;42.666;23.344;2023-07-13T07:52:19;94965.03;;;37.71;33.98
3178;BME280;38141;42.666;23.344;2023-07-13T07:54:47;94969.53;;;36.29;35.34
3178;BME280;38141;42.666;23.344;2023-07-13T07:57:14;94969.91;;;37.63;34.51
3178;BME280;38141;42.666;23.344;2023-07-13T07:59:41;94957.34;;;38.00;34.26
3178;BME280;38141;42.666;23.344;2023-07-13T08:02:09;94951.47;;;38.34;34.03
3178;BME280;38141;42.666;23.344;2023-07-13T08:04:37;94945.59;;;38.32;34.30
3178;BME280;38141;42.666;23.344;2023-07-13T08:07:04;94940.78;;;38.04;34.48
3178;BME280;38141;42.666;23.344;2023-07-13T08:09:31;94939.00;;;36.95;36.36
3178;BME280;38141;42.666;23.344;2023-07-13T08:11:59;94932.44;;;36.92;36.65
3178;BME280;38141;42.666;23.344;2023-07-13T08:14:26;94935.44;;;36.74;37.34
3178;BME280;38141;42.666;23.344;2023-07-13T08:16:53;94933.84;;;36.86;36.55
3178;BME280;38141;42.666;23.344;2023-07-13T08:19:20;94938.41;;;36.21;38.23
3178;BME280;38141;42.666;23.344;2023-07-13T08:21:46;94928.06;;;35.77;37.96
3178;BME280;38141;42.666;23.344;2023-07-13T08:24:14;94927.09;;;35.87;38.40
3178;BME280;38141;42.666;23.344;2023-07-13T08:26:43;94923.78;;;36.09;37.98
3178;BME280;38141;42.666;23.344;2023-07-13T08:29:12;94925.22;;;36.16;37.72
3178;BME280;38141;42.666;23.344;2023-07-13T08:31:38;94924.28;;;36.68;36.73
3178;BME280;38141;42.666;23.344;2023-07-13T08:34:05;94920.97;;;36.09;37.34
3178;BME280;38141;42.666;23.344;2023-07-13T08:36:32;94901.09;;;35.29;37.78
3178;BME280;38141;42.666;23.344;2023-07-13T08:38:59;94921.34;;;35.93;37.89
3178;BME280;38141;42.666;23.344;2023-07-13T08:44:19;94908.28;;;36.84;36.43
3178;BME280;38141;42.666;23.344;2023-07-13T08:46:52;94905.94;;;37.45;35.53
3178;BME280;38141;42.666;23.344;2023-07-13T08:49:23;94903.09;;;37.45;35.15
3178;BME280;38141;42.666;23.344;2023-07-13T08:51:51;94904.13;;;37.91;35.21
3178;BME280;38141;42.666;23.344;2023-07-13T08:54:23;94906.84;;;38.55;34.29
3178;BME280;38141;42.666;23.344;2023-07-13T08:56:53;94911.41;;;38.73;34.71
3178;BME280;38141;42.666;23.344;2023-07-13T08:59:26;94912.97;;;39.50;33.43
3178;BME280;38141;42.666;23.344;2023-07-13T09:02:18;94903.56;;;40.10;32.42
3178;BME280;38141;42.666;23.344;2023-07-13T09:04:50;94924.59;;;40.39;32.52
3178;BME280;38141;42.666;23.344;2023-07-13T09:07:23;94944.97;;;40.53;30.98
3178;BME280;38141;42.666;23.344;2023-07-13T09:10:03;94934.31;;;40.94;30.37
3178;BME280;38141;42.666;23.344;2023-07-13T09:12:40;94951.53;;;41.28;30.12
3178;BME280;38141;42.666;23.344;2023-07-13T09:15:23;94943.91;;;41.30;30.54
3178;BME280;38141;42.666;23.344;2023-07-13T09:17:53;94940.38;;;42.06;30.98
3178;BME280;38141;42.666;23.344;2023-07-13T09:20:27;94934.88;;;42.96;29.11
3178;BME280;38141;42.666;23.344;2023-07-13T09:22:56;94933.19;;;42.05;29.97
3178;BME280;38141;42.666;23.344;2023-07-13T09:25:29;94929.06;;;41.99;29.53
3178;BME280;38141;42.666;23.344;2023-07-13T09:27:59;94931.44;;;42.27;30.97
3178;BME280;38141;42.666;23.344;2023-07-13T09:30:33;94938.47;;;40.68;31.92
3178;BME280;38141;42.666;23.344;2023-07-13T09:33:03;94941.16;;;43.31;28.41
3178;BME280;38141;42.666;23.344;2023-07-13T09:35:34;94940.56;;;43.79;28.17
3178;BME280;38141;42.666;23.344;2023-07-13T09:38:11;94937.91;;;44.29;28.00
3178;BME280;38141;42.666;23.344;2023-07-13T09:40:49;94933.88;;;42.75;29.13
3178;BME280;38141;42.666;23.344;2023-07-13T09:43:20;94933.94;;;45.23;26.09
3178;BME280;38141;42.666;23.344;2023-07-13T09:45:49;94936.56;;;45.71;24.75
3178;BME280;38141;42.666;23.344;2023-07-13T09:48:17;94934.00;;;45.75;25.97
3178;BME280;38141;42.666;23.344;2023-07-13T09:50:44;94927.06;;;45.99;25.08
3178;BME280;38141;42.666;23.344;2023-07-13T09:53:13;94918.78;;;45.72;26.05
3178;BME280;38141;42.666;23.344;2023-07-13T09:55:41;94905.56;;;46.75;25.07
3178;BME280;38141;42.666;23.344;2023-07-13T09:58:11;94907.91;;;46.56;25.70
3178;BME280;38141;42.666;23.344;2023-07-13T10:00:39;94890.69;;;47.47;23.57
3178;BME280;38141;42.666;23.344;2023-07-13T10:03:16;94902.38;;;46.48;24.92
3178;BME280;38141;42.666;23.344;2023-07-13T10:05:46;94897.34;;;47.98;23.10
3178;BME280;38141;42.666;23.344;2023-07-13T10:08:23;94891.13;;;46.29;24.19
3178;BME280;38141;42.666;23.344;2023-07-13T10:10:57;94881.44;;;44.87;26.49
3178;BME280;38141;42.666;23.344;2023-07-13T10:13:31;94857.84;;;42.41;27.60
3178;BME280;38141;42.666;23.344;2023-07-13T10:15:59;94880.09;;;42.62;28.60
3178;BME280;38141;42.666;23.344;2023-07-13T10:18:29;94872.69;;;42.76;27.72
3178;BME280;38141;42.666;23.344;2023-07-13T10:21:11;94879.88;;;42.23;29.10
3178;BME280;38141;42.666;23.344;2023-07-13T10:23:39;94874.13;;;41.96;28.49
3178;BME280;38141;42.666;23.344;2023-07-13T10:26:13;94870.97;;;41.92;27.78
3178;BME280;38141;42.666;23.344;2023-07-13T10:28:42;94873.88;;;41.85;28.59
3178;BME280;38141;42.666;23.344;2023-07-13T10:31:12;94861.16;;;41.51;28.90
3178;BME280;38141;42.666;23.344;2023-07-13T10:33:42;94862.56;;;42.29;28.73
3178;BME280;38141;42.666;23.344;2023-07-13T10:36:14;94850.78;;;42.15;29.16
3178;BME280;38141;42.666;23.344;2023-07-13T10:38:44;94850.31;;;41.15;27.78
3178;BME280;38141;42.666;23.344;2023-07-13T10:41:15;94864.28;;;40.71;25.67
3178;BME280;38141;42.666;23.344;2023-07-13T10:43:45;94854.28;;;40.38;26.09
3178;BME280;38141;42.666;23.344;2023-07-13T10:46:17;94847.31;;;40.89;25.77
3178;BME280;38141;42.666;23.344;2023-07-13T10:48:49;94844.25;;;41.70;25.71
3178;BME280;38141;42.666;23.344;2023-07-13T10:51:18;94838.97;;;39.93;25.21
3178;BME280;38141;42.666;23.344;2023-07-13T10:53:48;94821.47;;;40.20;25.93
3178;BME280;38141;42.666;23.344;2023-07-13T10:56:34;94831.25;;;40.26;26.24
3178;BME280;38141;42.666;23.344;2023-07-13T10:59:11;94824.13;;;40.18;24.47
3178;BME280;38141;42.666;23.344;2023-07-13T11:01:46;94818.63;;;40.52;24.79
3178;BME280;38141;42.666;23.344;2023-07-13T11:04:18;94814.69;;;40.15;26.10
3178;BME280;38141;42.666;23.344;2023-07-13T11:06:48;94810.78;;;39.55;25.97
3178;BME280;38141;42.666;23.344;2023-07-13T11:09:31;94808.78;;;39.88;25.74
3178;BME280;38141;42.666;23.344;2023-07-13T11:11:59;94804.91;;;39.53;26.63
3178;BME280;38141;42.666;23.344;2023-07-13T11:14:30;94804.06;;;40.23;24.88
3178;BME280;38141;42.666;23.344;2023-07-13T11:16:58;94799.47;;;39.95;26.14
3178;BME280;38141;42.666;23.344;2023-07-13T11:19:40;94789.13;;;39.12;25.94
3178;BME280;38141;42.666;23.344;2023-07-13T11:22:13;94788.66;;;39.54;26.37
3178;BME280;38141;42.666;23.344;2023-07-13T11:25:00;94793.00;;;39.55;26.56
3178;BME280;38141;42.666;23.344;2023-07-13T11:27:35;94785.16;;;39.31;26.96
3178;BME280;38141;42.666;23.344;2023-07-13T11:30:23;94780.31;;;39.64;26.68
3178;BME280;38141;42.666;23.344;2023-07-13T11:33:02;94777.81;;;39.20;26.02
3178;BME280;38141;42.666;23.344;2023-07-13T11:35:35;94787.78;;;39.21;26.49
3178;BME280;38141;42.666;23.344;2023-07-13T11:38:12;94777.88;;;38.59;27.99
3178;BME280;38141;42.666;23.344;2023-07-13T11:40:41;94760.13;;;38.44;28.29
3178;BME280;38141;42.666;23.344;2023-07-13T11:43:13;94772.94;;;38.30;28.46
3178;BME280;38141;42.666;23.344;2023-07-13T11:45:40;94769.53;;;38.31;28.77
3178;BME280;38141;42.666;23.344;2023-07-13T11:48:18;94771.97;;;38.27;28.72
3178;BME280;38141;42.666;23.344;2023-07-13T11:50:53;94768.38;;;38.26;29.00
3178;BME280;38141;42.666;23.344;2023-07-13T11:53:21;94769.19;;;38.57;28.55
3178;BME280;38141;42.666;23.344;2023-07-13T11:55:48;94765.56;;;38.11;28.50
3178;BME280;38141;42.666;23.344;2023-07-13T11:58:21;94757.00;;;37.89;28.86
3178;BME280;38141;42.666;23.344;2023-07-13T12:00:49;94749.34;;;38.19;29.27
3178;BME280;38141;42.666;23.344;2023-07-13T12:03:20;94748.63;;;38.34;28.65
3178;BME280;38141;42.666;23.344;2023-07-13T12:05:58;94749.34;;;38.19;28.65
3178;BME280;38141;42.666;23.344;2023-07-13T12:08:25;94742.53;;;38.07;28.00
3178;BME280;38141;42.666;23.344;2023-07-13T12:11:04;94727.31;;;38.18;28.93
3178;BME280;38141;42.666;23.344;2023-07-13T12:13:36;94722.47;;;37.60;28.76
3178;BME280;38141;42.666;23.344;2023-07-13T12:16:11;94739.47;;;37.75;28.87
3178;BME280;38141;42.666;23.344;2023-07-13T12:18:39;94740.59;;;37.79;29.34
3178;BME280;38141;42.666;23.344;2023-07-13T12:21:14;94726.88;;;37.91;29.49
3178;BME280;38141;42.666;23.344;2023-07-13T12:23:44;94729.13;;;37.93;28.31
3178;BME280;38141;42.666;23.344;2023-07-13T12:26:12;94718.00;;;37.87;28.71
3178;BME280;38141;42.666;23.344;2023-07-13T12:28:45;94718.78;;;37.88;29.32
3178;BME280;38141;42.666;23.344;2023-07-13T12:31:30;94708.59;;;37.92;28.16
3178;BME280;38141;42.666;23.344;2023-07-13T12:34:00;94715.22;;;38.17;29.15
3178;BME280;38141;42.666;23.344;2023-07-13T12:36:32;94713.53;;;38.14;28.94
3178;BME280;38141;42.666;23.344;2023-07-13T12:39:05;94703.53;;;37.98;28.50
3178;BME280;38141;42.666;23.344;2023-07-13T12:41:38;94698.19;;;37.72;29.98
3178;BME280;38141;42.666;23.344;2023-07-13T12:44:10;94698.56;;;37.61;29.99
3178;BME280;38141;42.666;23.344;2023-07-13T12:46:38;94674.00;;;37.48;30.53
3178;BME280;38141;42.666;23.344;2023-07-13T12:49:06;94689.56;;;37.26;31.55
3178;BME280;38141;42.666;23.344;2023-07-13T12:51:36;94681.63;;;37.68;30.99
3178;BME280;38141;42.666;23.344;2023-07-13T12:54:13;94684.28;;;37.74;30.18
3178;BME280;38141;42.666;23.344;2023-07-13T12:56:41;94697.22;;;37.62;30.69
3178;BME280;38141;42.666;23.344;2023-07-13T12:59:16;94686.34;;;37.15;32.01
3178;BME280;38141;42.666;23.344;2023-07-13T13:01:45;94701.00;;;36.85;32.15
3178;BME280;38141;42.666;23.344;2023-07-13T13:04:12;94688.38;;;36.78;31.60
3178;BME280;38141;42.666;23.344;2023-07-13T13:06:40;94692.03;;;36.94;32.48
3178;BME280;38141;42.666;23.344;2023-07-13T13:09:11;94685.00;;;36.80;31.70